Stoughton, WI (53589)

6:20 AM CDT on September 01, 2015 (GMT -0500)
Dane Co. LaFollette Dam | | Change Station
CLOSE
Current Station
Personal Weather Station
Location: Stoughton, WI
Elevation: 850 ft
Nearby Weather Stations

Elev 850 ft 42.97 °N, 89.22 °W | Updated 2 minutes ago

Clear
Clear
69.0 °F
Feels Like 69.0 °F
N
0.0
Wind Variable Wind from North
Gusts 0.0 mph

Today
High -- | Low -- °F
--% Chance of Precip.
Yesterday
High -- | Low -- °F
Precip. -- in
6:21 AM 7:31 PM
Waning Gibbous, 89% visible
Pressure 29.99 in
Visibility 5.0 miles
Clouds Few 25000 ft
Dew Point 67 °F
Humidity 94%
Rainfall 0.00 in
Snow Depth Not available.
UV 0 out of 12
Pollen 10.80 out of 12
Air Quality Not available.
Flu Activity Not available.
METAR KMSN 011053Z 19005KT 5SM BR FEW250 22/20 A3001 RMK AO2 SLP156 FIRST AUGMENTED OBS OF THE DAY T02170200
Pressure 29.99 in
Visibility 5.0 miles
Clouds Few 25000 ft
Dew Point 67 °F
Humidity 94%
Rainfall 0.00 in
Snow Depth Not available.
UV 0 out of 12
Pollen 10.80 out of 12
Air Quality Not available.
Flu Activity Not available.
METAR KMSN 011053Z 19005KT 5SM BR FEW250 22/20 A3001 RMK AO2 SLP156 FIRST AUGMENTED OBS OF THE DAY T02170200
Nowcast | as of 5:08 am CDT on September 1, 2015

Clear skies...light winds and a humid air mass have lead to fog development across southern Wisconsin early this morning. Some of the heaviest fog is occurring near and along Lake Michigan...and also out in the Countryside where cool air drains into the usual low spots. Visibilities in some areas will be reduced to 1/4 mile or less. Look for visibilities to improve quickly after sunrise.

×

10-Day Weather Forecast

×

Almanac

Astronomy

Sep. 01, 2015 Rise Set
Actual Time
Civil Twilight
Nautical Twilight
Astronomical Twilight
Moon
Length of Visible Light
Length of Day
Tomorrow will be .
, % of the Moon is Illuminated

Today's Extremes

State Highs State Lows

Community

WunderPhotos

Upload Photos

1,851,501 photos uploaded!

WunderBlogs® & News

Nearby

Air Quality

  Air Quality AQ Index Pollutant
Not available.

Snow Depth

Station Depth Elevation

Earthquake Activity

City Distance Mag. Time & Date
Minimum magnitude displayed is 2.5.

Coastal Water Temperatures

Place Temperature

Stations

Nearby Weather Stations

Station Location Temp. Windchill Dew Point Humidity Wind Precip. Elev Updated Type